sensor_id;sensor_type;location;lat;lon;timestamp;pressure;altitude;pressure_sealevel;temperature;humidity
52137;BME280;69622;49.570;10.986;2024-02-26T00:00:05;96737.44;;;2.22;100.00
52137;BME280;69622;49.570;10.986;2024-02-26T00:03:10;96741.84;;;2.33;100.00
52137;BME280;69622;49.570;10.986;2024-02-26T00:06:11;96741.72;;;2.47;100.00
52137;BME280;69622;49.570;10.986;2024-02-26T00:09:13;96734.66;;;2.38;100.00
52137;BME280;69622;49.570;10.986;2024-02-26T00:12:14;96735.47;;;2.51;100.00
52137;BME280;69622;49.570;10.986;2024-02-26T00:15:16;96727.75;;;2.51;100.00
52137;BME280;69622;49.570;10.986;2024-02-26T00:18:17;96730.75;;;2.32;100.00
52137;BME280;69622;49.570;10.986;2024-02-26T00:21:19;96725.94;;;2.40;100.00
52137;BME280;69622;49.570;10.986;2024-02-26T00:24:21;96723.28;;;2.42;100.00
52137;BME280;69622;49.570;10.986;2024-02-26T00:27:22;96721.19;;;2.47;100.00
52137;BME280;69622;49.570;10.986;2024-02-26T00:30:24;96720.06;;;2.51;100.00
52137;BME280;69622;49.570;10.986;2024-02-26T00:33:26;96708.38;;;2.47;100.00
52137;BME280;69622;49.570;10.986;2024-02-26T00:36:28;96708.91;;;2.39;100.00
52137;BME280;69622;49.570;10.986;2024-02-26T00:39:29;96703.69;;;2.41;100.00
52137;BME280;69622;49.570;10.986;2024-02-26T00:42:30;96705.09;;;2.45;100.00
52137;BME280;69622;49.570;10.986;2024-02-26T00:45:32;96695.28;;;2.39;100.00
52137;BME280;69622;49.570;10.986;2024-02-26T00:48:33;96699.06;;;2.33;100.00
52137;BME280;69622;49.570;10.986;2024-02-26T00:51:35;96698.25;;;2.20;100.00
52137;BME280;69622;49.570;10.986;2024-02-26T00:54:36;96696.59;;;2.19;100.00
52137;BME280;69622;49.570;10.986;2024-02-26T00:57:38;96698.78;;;2.00;100.00
52137;BME280;69622;49.570;10.986;2024-02-26T01:00:42;96701.31;;;1.87;100.00
52137;BME280;69622;49.570;10.986;2024-02-26T01:03:43;96703.28;;;1.96;100.00
52137;BME280;69622;49.570;10.986;2024-02-26T01:06:45;96701.34;;;2.00;100.00
52137;BME280;69622;49.570;10.986;2024-02-26T01:09:46;96708.09;;;1.88;100.00
52137;BME280;69622;49.570;10.986;2024-02-26T01:12:48;96709.91;;;1.73;100.00
52137;BME280;69622;49.570;10.986;2024-02-26T01:15:49;96705.53;;;1.88;100.00
52137;BME280;69622;49.570;10.986;2024-02-26T01:18:50;96705.13;;;1.94;100.00
52137;BME280;69622;49.570;10.986;2024-02-26T01:21:53;96698.88;;;1.86;100.00
52137;BME280;69622;49.570;10.986;2024-02-26T01:24:54;96707.06;;;1.78;100.00
52137;BME280;69622;49.570;10.986;2024-02-26T01:27:56;96709.75;;;1.76;100.00
52137;BME280;69622;49.570;10.986;2024-02-26T01:30:57;96705.63;;;1.87;100.00
52137;BME280;69622;49.570;10.986;2024-02-26T01:34:00;96704.00;;;1.86;100.00
52137;BME280;69622;49.570;10.986;2024-02-26T01:37:02;96700.59;;;1.85;100.00
52137;BME280;69622;49.570;10.986;2024-02-26T01:40:04;96696.03;;;1.90;100.00
52137;BME280;69622;49.570;10.986;2024-02-26T01:43:07;96693.63;;;1.87;100.00
52137;BME280;69622;49.570;10.986;2024-02-26T01:46:13;96691.88;;;1.88;100.00
52137;BME280;69622;49.570;10.986;2024-02-26T01:49:15;96688.31;;;1.77;100.00
52137;BME280;69622;49.570;10.986;2024-02-26T01:52:17;96699.97;;;1.69;100.00
52137;BME280;69622;49.570;10.986;2024-02-26T01:55:20;96695.47;;;1.72;100.00
52137;BME280;69622;49.570;10.986;2024-02-26T01:58:23;96702.75;;;1.66;100.00
52137;BME280;69622;49.570;10.986;2024-02-26T02:01:25;96701.69;;;1.56;100.00
52137;BME280;69622;49.570;10.986;2024-02-26T02:04:28;96707.44;;;1.46;100.00
52137;BME280;69622;49.570;10.986;2024-02-26T02:07:30;96709.44;;;1.41;100.00
52137;BME280;69622;49.570;10.986;2024-02-26T02:10:31;96716.75;;;1.47;100.00
52137;BME280;69622;49.570;10.986;2024-02-26T02:13:32;96710.91;;;1.45;100.00
52137;BME280;69622;49.570;10.986;2024-02-26T02:16:34;96713.38;;;1.47;100.00
52137;BME280;69622;49.570;10.986;2024-02-26T02:19:35;96708.75;;;1.52;100.00
52137;BME280;69622;49.570;10.986;2024-02-26T02:22:37;96709.50;;;1.67;100.00
52137;BME280;69622;49.570;10.986;2024-02-26T02:25:39;96713.72;;;1.80;100.00
52137;BME280;69622;49.570;10.986;2024-02-26T02:28:41;96704.19;;;1.70;100.00
52137;BME280;69622;49.570;10.986;2024-02-26T02:31:42;96708.81;;;1.77;100.00
52137;BME280;69622;49.570;10.986;2024-02-26T02:34:44;96706.75;;;1.83;100.00
52137;BME280;69622;49.570;10.986;2024-02-26T02:37:46;96717.84;;;1.83;100.00
52137;BME280;69622;49.570;10.986;2024-02-26T02:40:48;96722.97;;;1.83;100.00
52137;BME280;69622;49.570;10.986;2024-02-26T02:43:49;96723.88;;;1.82;100.00
52137;BME280;69622;49.570;10.986;2024-02-26T02:46:51;96720.50;;;1.82;100.00
52137;BME280;69622;49.570;10.986;2024-02-26T02:49:54;96705.84;;;1.96;100.00
52137;BME280;69622;49.570;10.986;2024-02-26T02:52:56;96700.94;;;1.93;100.00
52137;BME280;69622;49.570;10.986;2024-02-26T02:55:57;96704.22;;;1.95;100.00
52137;BME280;69622;49.570;10.986;2024-02-26T02:58:58;96712.19;;;2.03;100.00
52137;BME280;69622;49.570;10.986;2024-02-26T03:02:00;96701.56;;;2.09;100.00
52137;BME280;69622;49.570;10.986;2024-02-26T03:05:03;96704.13;;;2.09;100.00
52137;BME280;69622;49.570;10.986;2024-02-26T03:08:04;96708.91;;;2.14;100.00
52137;BME280;69622;49.570;10.986;2024-02-26T03:11:06;96714.88;;;2.15;100.00
52137;BME280;69622;49.570;10.986;2024-02-26T03:14:07;96711.16;;;2.19;100.00
52137;BME280;69622;49.570;10.986;2024-02-26T03:17:09;96698.06;;;2.23;100.00
52137;BME280;69622;49.570;10.986;2024-02-26T03:20:11;96695.50;;;2.23;100.00
52137;BME280;69622;49.570;10.986;2024-02-26T03:23:12;96691.19;;;2.24;100.00
52137;BME280;69622;49.570;10.986;2024-02-26T03:26:16;96693.53;;;2.27;100.00
52137;BME280;69622;49.570;10.986;2024-02-26T03:29:18;96688.19;;;2.30;100.00
52137;BME280;69622;49.570;10.986;2024-02-26T03:32:20;96697.03;;;2.26;100.00
52137;BME280;69622;49.570;10.986;2024-02-26T03:35:21;96705.53;;;2.14;100.00
52137;BME280;69622;49.570;10.986;2024-02-26T03:38:23;96705.31;;;2.17;100.00
52137;BME280;69622;49.570;10.986;2024-02-26T03:41:24;96710.56;;;2.02;100.00
52137;BME280;69622;49.570;10.986;2024-02-26T03:44:26;96715.28;;;2.08;100.00
52137;BME280;69622;49.570;10.986;2024-02-26T03:47:27;96716.13;;;2.09;100.00
52137;BME280;69622;49.570;10.986;2024-02-26T03:50:29;96709.75;;;2.15;100.00
52137;BME280;69622;49.570;10.986;2024-02-26T03:53:30;96702.47;;;2.21;100.00
52137;BME280;69622;49.570;10.986;2024-02-26T03:56:32;96701.00;;;2.30;100.00
52137;BME280;69622;49.570;10.986;2024-02-26T03:59:33;96706.16;;;2.30;100.00
52137;BME280;69622;49.570;10.986;2024-02-26T04:02:34;96704.81;;;2.37;100.00
52137;BME280;69622;49.570;10.986;2024-02-26T04:05:36;96692.72;;;2.39;100.00
52137;BME280;69622;49.570;10.986;2024-02-26T04:08:37;96684.69;;;2.44;100.00
52137;BME280;69622;49.570;10.986;2024-02-26T04:11:39;96698.34;;;2.44;100.00
52137;BME280;69622;49.570;10.986;2024-02-26T04:14:40;96694.13;;;2.43;100.00
52137;BME280;69622;49.570;10.986;2024-02-26T04:17:42;96694.72;;;2.47;100.00
52137;BME280;69622;49.570;10.986;2024-02-26T04:20:43;96695.44;;;2.49;100.00
52137;BME280;69622;49.570;10.986;2024-02-26T04:23:45;96695.44;;;2.49;100.00
52137;BME280;69622;49.570;10.986;2024-02-26T04:26:47;96704.19;;;2.46;100.00
52137;BME280;69622;49.570;10.986;2024-02-26T04:29:48;96703.03;;;2.50;100.00
52137;BME280;69622;49.570;10.986;2024-02-26T04:32:50;96705.41;;;2.53;100.00
52137;BME280;69622;49.570;10.986;2024-02-26T04:35:51;96707.22;;;2.51;100.00
52137;BME280;69622;49.570;10.986;2024-02-26T04:38:53;96705.41;;;2.53;100.00
52137;BME280;69622;49.570;10.986;2024-02-26T04:41:56;96704.38;;;2.56;100.00
52137;BME280;69622;49.570;10.986;2024-02-26T04:44:58;96712.78;;;2.58;100.00
52137;BME280;69622;49.570;10.986;2024-02-26T04:48:00;96714.63;;;2.56;100.00
52137;BME280;69622;49.570;10.986;2024-02-26T04:51:02;96708.56;;;2.57;100.00
52137;BME280;69622;49.570;10.986;2024-02-26T04:54:04;96719.88;;;2.54;100.00
52137;BME280;69622;49.570;10.986;2024-02-26T04:57:06;96724.19;;;2.54;100.00
52137;BME280;69622;49.570;10.986;2024-02-26T05:00:08;96728.28;;;2.56;100.00
52137;BME280;69622;49.570;10.986;2024-02-26T05:03:11;96727.97;;;2.48;100.00
52137;BME280;69622;49.570;10.986;2024-02-26T05:06:17;96732.88;;;2.51;100.00
52137;BME280;69622;49.570;10.986;2024-02-26T05:09:18;96723.59;;;2.37;100.00
52137;BME280;69622;49.570;10.986;2024-02-26T05:12:20;96723.16;;;2.44;100.00
52137;BME280;69622;49.570;10.986;2024-02-26T05:15:21;96728.69;;;2.50;100.00
52137;BME280;69622;49.570;10.986;2024-02-26T05:18:23;96729.31;;;2.54;100.00
52137;BME280;69622;49.570;10.986;2024-02-26T05:21:24;96728.28;;;2.56;100.00
52137;BME280;69622;49.570;10.986;2024-02-26T05:24:26;96727.34;;;2.57;100.00
52137;BME280;69622;49.570;10.986;2024-02-26T05:27:27;96727.75;;;2.64;100.00
52137;BME280;69622;49.570;10.986;2024-02-26T05:30:29;96734.13;;;2.58;100.00
52137;BME280;69622;49.570;10.986;2024-02-26T05:33:31;96724.56;;;2.60;100.00
52137;BME280;69622;49.570;10.986;2024-02-26T05:36:32;96729.59;;;2.62;100.00
52137;BME280;69622;49.570;10.986;2024-02-26T05:39:35;96743.47;;;2.59;100.00
52137;BME280;69622;49.570;10.986;2024-02-26T05:42:36;96735.34;;;2.65;100.00
52137;BME280;69622;49.570;10.986;2024-02-26T05:45:38;96749.69;;;2.68;100.00
52137;BME280;69622;49.570;10.986;2024-02-26T05:48:39;96750.53;;;2.68;100.00
52137;BME280;69622;49.570;10.986;2024-02-26T05:51:41;96763.75;;;2.75;100.00
52137;BME280;69622;49.570;10.986;2024-02-26T05:54:43;96765.72;;;2.72;100.00
52137;BME280;69622;49.570;10.986;2024-02-26T05:57:44;96760.38;;;2.75;100.00
52137;BME280;69622;49.570;10.986;2024-02-26T06:00:46;96756.56;;;2.80;100.00
52137;BME280;69622;49.570;10.986;2024-02-26T06:03:47;96747.75;;;2.84;100.00
52137;BME280;69622;49.570;10.986;2024-02-26T06:06:49;96754.69;;;2.95;100.00
52137;BME280;69622;49.570;10.986;2024-02-26T06:09:51;96754.50;;;2.85;100.00
52137;BME280;69622;49.570;10.986;2024-02-26T06:12:52;96757.56;;;2.90;100.00
52137;BME280;69622;49.570;10.986;2024-02-26T06:15:54;96764.47;;;2.90;100.00
52137;BME280;69622;49.570;10.986;2024-02-26T06:18:55;96761.22;;;2.99;100.00
52137;BME280;69622;49.570;10.986;2024-02-26T06:21:58;96769.47;;;2.91;100.00
52137;BME280;69622;49.570;10.986;2024-02-26T06:24:59;96764.72;;;2.98;100.00
52137;BME280;69622;49.570;10.986;2024-02-26T06:28:00;96767.69;;;3.05;100.00
52137;BME280;69622;49.570;10.986;2024-02-26T06:31:02;96773.25;;;2.98;100.00
52137;BME280;69622;49.570;10.986;2024-02-26T06:34:04;96779.00;;;3.02;100.00
52137;BME280;69622;49.570;10.986;2024-02-26T06:37:06;96783.22;;;3.03;100.00
52137;BME280;69622;49.570;10.986;2024-02-26T06:40:08;96783.63;;;2.97;100.00
52137;BME280;69622;49.570;10.986;2024-02-26T06:43:10;96783.50;;;3.11;100.00
52137;BME280;69622;49.570;10.986;2024-02-26T06:46:11;96786.66;;;3.51;100.00
52137;BME280;69622;49.570;10.986;2024-02-26T06:49:13;96782.59;;;3.36;100.00
52137;BME280;69622;49.570;10.986;2024-02-26T06:52:14;96781.09;;;3.21;100.00
52137;BME280;69622;49.570;10.986;2024-02-26T06:55:16;96788.00;;;3.20;100.00
52137;BME280;69622;49.570;10.986;2024-02-26T06:58:17;96784.16;;;3.26;100.00
52137;BME280;69622;49.570;10.986;2024-02-26T07:01:19;96786.47;;;3.42;100.00
52137;BME280;69622;49.570;10.986;2024-02-26T07:04:20;96800.81;;;3.33;100.00
52137;BME280;69622;49.570;10.986;2024-02-26T07:07:22;96803.16;;;3.36;100.00
52137;BME280;69622;49.570;10.986;2024-02-26T07:10:24;96803.75;;;3.40;100.00
52137;BME280;69622;49.570;10.986;2024-02-26T07:13:26;96802.72;;;3.42;100.00
52137;BME280;69622;49.570;10.986;2024-02-26T07:16:27;96795.94;;;3.41;100.00
52137;BME280;69622;49.570;10.986;2024-02-26T07:19:29;96799.75;;;3.59;100.00
52137;BME280;69622;49.570;10.986;2024-02-26T07:22:30;96803.56;;;3.78;100.00
52137;BME280;69622;49.570;10.986;2024-02-26T07:25:32;96800.75;;;3.70;100.00
52137;BME280;69622;49.570;10.986;2024-02-26T07:28:33;96796.50;;;3.92;100.00
52137;BME280;69622;49.570;10.986;2024-02-26T07:31:35;96794.81;;;4.15;100.00
52137;BME280;69622;49.570;10.986;2024-02-26T07:34:36;96808.56;;;4.27;100.00
52137;BME280;69622;49.570;10.986;2024-02-26T07:37:40;96822.69;;;4.33;100.00
52137;BME280;69622;49.570;10.986;2024-02-26T07:40:42;96815.13;;;4.42;100.00
52137;BME280;69622;49.570;10.986;2024-02-26T07:43:59;96822.16;;;4.63;100.00
52137;BME280;69622;49.570;10.986;2024-02-26T07:47:01;96821.19;;;4.30;100.00
52137;BME280;69622;49.570;10.986;2024-02-26T07:50:02;96834.00;;;4.19;100.00
52137;BME280;69622;49.570;10.986;2024-02-26T07:53:04;96812.81;;;4.62;100.00
52137;BME280;69622;49.570;10.986;2024-02-26T07:56:06;96822.03;;;4.53;100.00
52137;BME280;69622;49.570;10.986;2024-02-26T07:59:07;96821.59;;;4.81;100.00
52137;BME280;69622;49.570;10.986;2024-02-26T08:02:09;96821.13;;;4.65;100.00
52137;BME280;69622;49.570;10.986;2024-02-26T08:05:10;96820.66;;;4.94;100.00
52137;BME280;69622;49.570;10.986;2024-02-26T08:08:11;96816.91;;;4.75;100.00
52137;BME280;69622;49.570;10.986;2024-02-26T08:11:16;96823.00;;;4.86;100.00
52137;BME280;69622;49.570;10.986;2024-02-26T08:14:17;96824.41;;;4.78;100.00
52137;BME280;69622;49.570;10.986;2024-02-26T08:17:19;96828.50;;;4.81;100.00
52137;BME280;69622;49.570;10.986;2024-02-26T08:20:20;96835.28;;;5.16;100.00
52137;BME280;69622;49.570;10.986;2024-02-26T08:23:22;96854.84;;;5.18;100.00
52137;BME280;69622;49.570;10.986;2024-02-26T08:26:23;96852.88;;;5.22;100.00
52137;BME280;69622;49.570;10.986;2024-02-26T08:29:25;96860.69;;;4.98;100.00
52137;BME280;69622;49.570;10.986;2024-02-26T08:32:26;96856.47;;;5.30;100.00
52137;BME280;69622;49.570;10.986;2024-02-26T08:35:28;96860.69;;;5.54;100.00
52137;BME280;69622;49.570;10.986;2024-02-26T08:38:30;96863.13;;;5.55;100.00
52137;BME280;69622;49.570;10.986;2024-02-26T08:41:31;96871.06;;;5.52;100.00
52137;BME280;69622;49.570;10.986;2024-02-26T08:44:33;96858.25;;;5.84;100.00
52137;BME280;69622;49.570;10.986;2024-02-26T08:47:34;96860.44;;;5.57;100.00
52137;BME280;69622;49.570;10.986;2024-02-26T08:50:36;96875.03;;;5.67;100.00
52137;BME280;69622;49.570;10.986;2024-02-26T08:53:38;96871.81;;;5.54;100.00
52137;BME280;69622;49.570;10.986;2024-02-26T08:56:44;96866.16;;;5.49;100.00
52137;BME280;69622;49.570;10.986;2024-02-26T08:59:45;96861.25;;;5.46;100.00
52137;BME280;69622;49.570;10.986;2024-02-26T09:02:47;96860.75;;;5.63;100.00
52137;BME280;69622;49.570;10.986;2024-02-26T09:05:50;96860.50;;;5.66;100.00
52137;BME280;69622;49.570;10.986;2024-02-26T09:08:52;96860.94;;;5.83;100.00
52137;BME280;69622;49.570;10.986;2024-02-26T09:11:53;96858.81;;;5.88;100.00
52137;BME280;69622;49.570;10.986;2024-02-26T09:14:56;96857.81;;;6.11;100.00
52137;BME280;69622;49.570;10.986;2024-02-26T09:17:58;96858.31;;;6.05;100.00
52137;BME280;69622;49.570;10.986;2024-02-26T09:21:04;96854.91;;;6.37;100.00
52137;BME280;69622;49.570;10.986;2024-02-26T09:24:05;96855.38;;;6.10;100.00
52137;BME280;69622;49.570;10.986;2024-02-26T09:27:08;96854.56;;;6.30;100.00
52137;BME280;69622;49.570;10.986;2024-02-26T09:30:11;96858.69;;;6.33;100.00
52137;BME280;69622;49.570;10.986;2024-02-26T09:33:13;96860.81;;;6.27;100.00
52137;BME280;69622;49.570;10.986;2024-02-26T09:36:15;96853.75;;;6.71;100.00
52137;BME280;69622;49.570;10.986;2024-02-26T09:39:17;96838.75;;;6.86;100.00
52137;BME280;69622;49.570;10.986;2024-02-26T09:42:25;96849.97;;;7.06;100.00
52137;BME280;69622;49.570;10.986;2024-02-26T09:45:28;96843.72;;;6.99;100.00
52137;BME280;69622;49.570;10.986;2024-02-26T09:48:30;96839.91;;;7.03;100.00
52137;BME280;69622;49.570;10.986;2024-02-26T09:51:32;96826.84;;;6.95;100.00
52137;BME280;69622;49.570;10.986;2024-02-26T09:54:34;96819.75;;;6.97;100.00
52137;BME280;69622;49.570;10.986;2024-02-26T09:57:37;96825.13;;;6.84;100.00
52137;BME280;69622;49.570;10.986;2024-02-26T10:00:39;96821.56;;;6.75;100.00
52137;BME280;69622;49.570;10.986;2024-02-26T10:03:42;96811.88;;;6.68;100.00
52137;BME280;69622;49.570;10.986;2024-02-26T10:06:46;96818.38;;;6.93;100.00
52137;BME280;69622;49.570;10.986;2024-02-26T10:09:48;96821.19;;;6.80;100.00
52137;BME280;69622;49.570;10.986;2024-02-26T10:12:49;96833.38;;;6.78;100.00
52137;BME280;69622;49.570;10.986;2024-02-26T10:15:52;96838.25;;;7.32;100.00
52137;BME280;69622;49.570;10.986;2024-02-26T10:18:53;96820.88;;;7.44;100.00
52137;BME280;69622;49.570;10.986;2024-02-26T10:22:01;96812.56;;;7.50;100.00
52137;BME280;69622;49.570;10.986;2024-02-26T10:25:03;96836.44;;;7.82;100.00
52137;BME280;69622;49.570;10.986;2024-02-26T10:28:05;96849.25;;;7.94;100.00
52137;BME280;69622;49.570;10.986;2024-02-26T10:31:08;96849.41;;;7.92;100.00
52137;BME280;69622;49.570;10.986;2024-02-26T10:34:10;96844.91;;;7.94;100.00
52137;BME280;69622;49.570;10.986;2024-02-26T10:37:12;96858.94;;;8.11;100.00
52137;BME280;69622;49.570;10.986;2024-02-26T10:40:16;96865.78;;;8.22;100.00
52137;BME280;69622;49.570;10.986;2024-02-26T10:43:17;96864.41;;;8.27;100.00
52137;BME280;69622;49.570;10.986;2024-02-26T10:46:20;96869.88;;;8.44;100.00
52137;BME280;69622;49.570;10.986;2024-02-26T10:49:21;96866.84;;;8.58;100.00
52137;BME280;69622;49.570;10.986;2024-02-26T10:52:25;96862.34;;;8.50;100.00
52137;BME280;69622;49.570;10.986;2024-02-26T10:55:27;96865.78;;;8.22;100.00
52137;BME280;69622;49.570;10.986;2024-02-26T10:58:31;96864.34;;;8.85;100.00
52137;BME280;69622;49.570;10.986;2024-02-26T11:01:34;96864.78;;;8.71;100.00
52137;BME280;69622;49.570;10.986;2024-02-26T11:04:38;96872.13;;;8.85;100.00
52137;BME280;69622;49.570;10.986;2024-02-26T11:07:41;96872.28;;;9.21;100.00
52137;BME280;69622;49.570;10.986;2024-02-26T11:10:43;96879.53;;;9.45;100.00
52137;BME280;69622;49.570;10.986;2024-02-26T11:13:47;96885.22;;;9.58;100.00
52137;BME280;69622;49.570;10.986;2024-02-26T11:16:52;96875.31;;;9.44;100.00
52137;BME280;69622;49.570;10.986;2024-02-26T11:19:56;96864.53;;;9.11;100.00
52137;BME280;69622;49.570;10.986;2024-02-26T11:22:59;96872.84;;;9.52;100.00
52137;BME280;69622;49.570;10.986;2024-02-26T11:26:01;96874.13;;;9.66;100.00
52137;BME280;69622;49.570;10.986;2024-02-26T11:29:03;96864.59;;;9.84;100.00
52137;BME280;69622;49.570;10.986;2024-02-26T11:32:06;96873.50;;;9.81;100.00
52137;BME280;69622;49.570;10.986;2024-02-26T11:35:08;96872.88;;;9.42;100.00
52137;BME280;69622;49.570;10.986;2024-02-26T11:38:20;96864.16;;;9.61;100.00
52137;BME280;69622;49.570;10.986;2024-02-26T11:41:25;96860.38;;;10.01;95.64
52137;BME280;69622;49.570;10.986;2024-02-26T11:44:29;96859.88;;;10.15;100.00
52137;BME280;69622;49.570;10.986;2024-02-26T11:47:35;96864.88;;;10.26;90.28
52137;BME280;69622;49.570;10.986;2024-02-26T11:50:45;96856.97;;;10.00;95.55
52137;BME280;69622;49.570;10.986;2024-02-26T11:53:47;96858.97;;;9.88;87.98
52137;BME280;69622;49.570;10.986;2024-02-26T11:56:52;96872.28;;;10.21;86.48
52137;BME280;69622;49.570;10.986;2024-02-26T12:00:18;96870.28;;;10.50;89.43
52137;BME280;69622;49.570;10.986;2024-02-26T12:03:24;96865.88;;;10.51;86.70
52137;BME280;69622;49.570;10.986;2024-02-26T12:06:27;96869.66;;;10.57;86.53
52137;BME280;69622;49.570;10.986;2024-02-26T12:09:31;96863.22;;;10.87;84.32
52137;BME280;69622;49.570;10.986;2024-02-26T12:12:34;96864.97;;;10.78;82.79
52137;BME280;69622;49.570;10.986;2024-02-26T12:15:41;96859.53;;;10.71;82.55
52137;BME280;69622;49.570;10.986;2024-02-26T12:18:44;96855.91;;;10.64;79.00
52137;BME280;69622;49.570;10.986;2024-02-26T12:21:51;96856.03;;;10.80;80.70
52137;BME280;69622;49.570;10.986;2024-02-26T12:24:59;96870.25;;;10.94;80.17
52137;BME280;69622;49.570;10.986;2024-02-26T12:28:02;96864.50;;;11.08;nan
52137;BME280;69622;49.570;10.986;2024-02-26T12:31:04;96862.47;;;10.94;77.93
52137;BME280;69622;49.570;10.986;2024-02-26T12:34:06;96868.81;;;11.00;79.57
52137;BME280;69622;49.570;10.986;2024-02-26T12:37:11;96875.22;;;11.05;80.00
52137;BME280;69622;49.570;10.986;2024-02-26T12:40:12;96873.41;;;10.80;77.61
52137;BME280;69622;49.570;10.986;2024-02-26T12:43:15;96868.56;;;11.45;79.30
52137;BME280;69622;49.570;10.986;2024-02-26T12:46:16;96867.34;;;11.65;77.66
52137;BME280;69622;49.570;10.986;2024-02-26T12:49:18;96866.06;;;11.69;76.98
52137;BME280;69622;49.570;10.986;2024-02-26T12:52:20;96864.50;;;11.51;78.09
52137;BME280;69622;49.570;10.986;2024-02-26T12:55:23;96864.72;;;11.65;76.59
52137;BME280;69622;49.570;10.986;2024-02-26T12:58:24;96854.16;;;11.67;78.47
52137;BME280;69622;49.570;10.986;2024-02-26T13:01:27;96861.50;;;11.72;80.46
52137;BME280;69622;49.570;10.986;2024-02-26T13:04:29;96866.91;;;11.78;75.68
52137;BME280;69622;49.570;10.986;2024-02-26T13:07:32;96872.44;;;11.75;74.95
52137;BME280;69622;49.570;10.986;2024-02-26T13:10:34;96878.41;;;11.67;73.92
52137;BME280;69622;49.570;10.986;2024-02-26T13:13:36;96881.78;;;11.86;71.95
52137;BME280;69622;49.570;10.986;2024-02-26T13:16:37;96886.66;;;11.89;70.44
52137;BME280;69622;49.570;10.986;2024-02-26T13:19:49;96889.91;;;11.91;72.09
52137;BME280;69622;49.570;10.986;2024-02-26T13:22:50;96891.25;;;12.03;72.75
52137;BME280;69622;49.570;10.986;2024-02-26T13:25:56;96887.03;;;12.02;73.21
52137;BME280;69622;49.570;10.986;2024-02-26T13:29:01;96887.69;;;12.04;71.72
52137;BME280;69622;49.570;10.986;2024-02-26T13:32:04;96900.41;;;12.23;71.40
52137;BME280;69622;49.570;10.986;2024-02-26T13:35:12;96891.94;;;12.29;70.68
52137;BME280;69622;49.570;10.986;2024-02-26T13:38:13;96897.84;;;12.32;70.54
52137;BME280;69622;49.570;10.986;2024-02-26T13:41:15;96907.25;;;12.24;71.17
52137;BME280;69622;49.570;10.986;2024-02-26T13:44:17;96904.16;;;12.21;66.15
52137;BME280;69622;49.570;10.986;2024-02-26T13:47:18;96903.84;;;12.32;70.52
52137;BME280;69622;49.570;10.986;2024-02-26T13:50:20;96911.97;;;12.29;67.65
52137;BME280;69622;49.570;10.986;2024-02-26T13:53:24;96909.19;;;12.14;65.63
52137;BME280;69622;49.570;10.986;2024-02-26T13:56:25;96902.69;;;12.26;67.68
52137;BME280;69622;49.570;10.986;2024-02-26T13:59:27;96906.47;;;12.32;64.55
52137;BME280;69622;49.570;10.986;2024-02-26T14:02:31;96907.34;;;11.98;63.96
52137;BME280;69622;49.570;10.986;2024-02-26T14:05:32;96906.41;;;12.08;62.62
52137;BME280;69622;49.570;10.986;2024-02-26T14:08:33;96905.13;;;12.20;63.63
52137;BME280;69622;49.570;10.986;2024-02-26T14:11:35;96904.94;;;12.05;66.67
52137;BME280;69622;49.570;10.986;2024-02-26T14:14:37;96921.53;;;12.04;64.19
52137;BME280;69622;49.570;10.986;2024-02-26T14:17:40;96917.72;;;12.57;62.82
52137;BME280;69622;49.570;10.986;2024-02-26T14:20:42;96923.41;;;12.36;63.33
52137;BME280;69622;49.570;10.986;2024-02-26T14:23:45;96925.16;;;12.27;63.46
52137;BME280;69622;49.570;10.986;2024-02-26T14:26:47;96922.88;;;12.24;66.22
52137;BME280;69622;49.570;10.986;2024-02-26T14:29:49;96919.66;;;11.80;65.73
52137;BME280;69622;49.570;10.986;2024-02-26T14:32:50;96923.16;;;12.05;66.41
52137;BME280;69622;49.570;10.986;2024-02-26T14:35:52;96920.84;;;11.94;66.51
52137;BME280;69622;49.570;10.986;2024-02-26T14:38:53;96924.09;;;11.88;64.33
52137;BME280;69622;49.570;10.986;2024-02-26T14:41:56;96933.44;;;11.73;66.88
52137;BME280;69622;49.570;10.986;2024-02-26T14:44:58;96941.84;;;11.92;65.18
52137;BME280;69622;49.570;10.986;2024-02-26T14:48:01;96948.03;;;11.57;66.92
52137;BME280;69622;49.570;10.986;2024-02-26T14:51:02;96941.97;;;11.83;66.39
52137;BME280;69622;49.570;10.986;2024-02-26T14:54:04;96943.06;;;11.46;69.46
52137;BME280;69622;49.570;10.986;2024-02-26T14:57:05;96945.69;;;11.80;68.17
52137;BME280;69622;49.570;10.986;2024-02-26T15:00:08;96950.97;;;11.62;69.45
52137;BME280;69622;49.570;10.986;2024-02-26T15:03:11;96957.25;;;11.52;67.43
52137;BME280;69622;49.570;10.986;2024-02-26T15:06:12;96949.88;;;11.39;68.04
52137;BME280;69622;49.570;10.986;2024-02-26T15:09:14;96955.09;;;11.39;70.51
52137;BME280;69622;49.570;10.986;2024-02-26T15:12:15;96951.28;;;11.33;70.07
52137;BME280;69622;49.570;10.986;2024-02-26T15:15:19;96954.34;;;11.03;70.19
52137;BME280;69622;49.570;10.986;2024-02-26T15:18:20;96957.06;;;11.19;69.27
52137;BME280;69622;49.570;10.986;2024-02-26T15:21:22;96952.63;;;11.12;69.30
52137;BME280;69622;49.570;10.986;2024-02-26T15:24:23;96960.34;;;11.21;69.75
52137;BME280;69622;49.570;10.986;2024-02-26T15:27:25;96964.06;;;11.01;70.74
52137;BME280;69622;49.570;10.986;2024-02-26T15:30:26;96968.47;;;11.00;70.23
52137;BME280;69622;49.570;10.986;2024-02-26T15:33:31;96968.66;;;10.81;70.65
52137;BME280;69622;49.570;10.986;2024-02-26T15:36:34;96972.59;;;10.67;71.32
52137;BME280;69622;49.570;10.986;2024-02-26T15:39:35;96980.31;;;10.77;71.49
52137;BME280;69622;49.570;10.986;2024-02-26T15:42:37;96985.22;;;10.62;73.66
52137;BME280;69622;49.570;10.986;2024-02-26T15:45:39;96990.41;;;10.62;74.36
52137;BME280;69622;49.570;10.986;2024-02-26T15:48:40;96994.50;;;10.83;74.05
52137;BME280;69622;49.570;10.986;2024-02-26T15:51:42;96994.84;;;10.88;75.43